sensor_id;sensor_type;location;lat;lon;timestamp;pressure;altitude;pressure_sealevel;temperature;humidity
43745;BME280;29359;53.048;8.732;2023-05-02T00:02:02;101726.75;;;11.58;84.19
43745;BME280;29359;53.048;8.732;2023-05-02T00:04:04;101724.06;;;11.60;84.17
43745;BME280;29359;53.048;8.732;2023-05-02T00:06:05;101719.66;;;11.60;84.39
43745;BME280;29359;53.048;8.732;2023-05-02T00:08:07;101717.88;;;11.61;84.37
43745;BME280;29359;53.048;8.732;2023-05-02T00:10:09;101722.31;;;11.59;84.98
43745;BME280;29359;53.048;8.732;2023-05-02T00:12:11;101718.84;;;11.55;85.50
43745;BME280;29359;53.048;8.732;2023-05-02T00:14:12;101716.28;;;11.52;85.83
43745;BME280;29359;53.048;8.732;2023-05-02T00:16:14;101721.59;;;11.51;86.23
43745;BME280;29359;53.048;8.732;2023-05-02T00:18:15;101716.22;;;11.55;85.46
43745;BME280;29359;53.048;8.732;2023-05-02T00:20:17;101725.94;;;11.53;85.59
43745;BME280;29359;53.048;8.732;2023-05-02T00:22:19;101725.13;;;11.50;86.22
43745;BME280;29359;53.048;8.732;2023-05-02T00:24:20;101725.09;;;11.53;85.99
43745;BME280;29359;53.048;8.732;2023-05-02T00:26:22;101717.16;;;11.53;85.84
43745;BME280;29359;53.048;8.732;2023-05-02T00:28:24;101723.34;;;11.52;86.32
43745;BME280;29359;53.048;8.732;2023-05-02T00:30:26;101717.22;;;11.48;86.76
43745;BME280;29359;53.048;8.732;2023-05-02T00:32:28;101718.97;;;11.49;86.90
43745;BME280;29359;53.048;8.732;2023-05-02T00:34:30;101720.75;;;11.49;86.76
43745;BME280;29359;53.048;8.732;2023-05-02T00:36:31;101726.94;;;11.48;86.94
43745;BME280;29359;53.048;8.732;2023-05-02T00:38:33;101722.53;;;11.47;87.08
43745;BME280;29359;53.048;8.732;2023-05-02T00:40:48;101726.00;;;11.50;86.51
43745;BME280;29359;53.048;8.732;2023-05-02T00:42:51;101728.66;;;11.50;86.11
43745;BME280;29359;53.048;8.732;2023-05-02T00:44:52;101729.56;;;11.49;86.58
43745;BME280;29359;53.048;8.732;2023-05-02T00:46:55;101726.00;;;11.50;86.56
43745;BME280;29359;53.048;8.732;2023-05-02T00:48:57;101726.06;;;11.47;86.67
43745;BME280;29359;53.048;8.732;2023-05-02T00:51:02;101731.38;;;11.46;86.94
43745;BME280;29359;53.048;8.732;2023-05-02T00:53:06;101727.88;;;11.44;86.81
43745;BME280;29359;53.048;8.732;2023-05-02T00:55:08;101723.50;;;11.43;86.93
43745;BME280;29359;53.048;8.732;2023-05-02T00:57:09;101724.38;;;11.43;86.10
43745;BME280;29359;53.048;8.732;2023-05-02T00:59:11;101721.72;;;11.43;86.21
43745;BME280;29359;53.048;8.732;2023-05-02T01:01:42;101729.59;;;11.46;86.63
43745;BME280;29359;53.048;8.732;2023-05-02T01:06:22;101725.28;;;11.42;86.99
43745;BME280;29359;53.048;8.732;2023-05-02T01:08:31;101727.91;;;11.42;87.18
43745;BME280;29359;53.048;8.732;2023-05-02T01:10:48;101727.91;;;11.42;87.26
43745;BME280;29359;53.048;8.732;2023-05-02T01:13:02;101721.75;;;11.42;87.38
43745;BME280;29359;53.048;8.732;2023-05-02T01:15:09;101728.81;;;11.41;87.87
43745;BME280;29359;53.048;8.732;2023-05-02T01:17:14;101724.38;;;11.43;87.76
43745;BME280;29359;53.048;8.732;2023-05-02T01:19:31;101740.28;;;11.40;87.81
43745;BME280;29359;53.048;8.732;2023-05-02T01:21:35;101739.41;;;11.40;87.76
43745;BME280;29359;53.048;8.732;2023-05-02T01:25:58;101740.38;;;11.36;87.58
43745;BME280;29359;53.048;8.732;2023-05-02T01:28:30;101732.47;;;11.34;87.63
43745;BME280;29359;53.048;8.732;2023-05-02T01:30:40;101746.63;;;11.30;88.20
43745;BME280;29359;53.048;8.732;2023-05-02T01:32:45;101750.28;;;11.21;89.08
43745;BME280;29359;53.048;8.732;2023-05-02T01:34:48;101753.81;;;11.20;88.94
43745;BME280;29359;53.048;8.732;2023-05-02T01:36:53;101762.59;;;11.22;88.88
43745;BME280;29359;53.048;8.732;2023-05-02T01:38:59;101766.19;;;11.18;88.81
43745;BME280;29359;53.048;8.732;2023-05-02T01:41:03;101766.25;;;11.14;89.19
43745;BME280;29359;53.048;8.732;2023-05-02T01:43:07;101762.00;;;11.05;90.15
43745;BME280;29359;53.048;8.732;2023-05-02T01:45:10;101764.72;;;10.99;91.12
43745;BME280;29359;53.048;8.732;2023-05-02T01:47:13;101763.91;;;10.95;92.08
43745;BME280;29359;53.048;8.732;2023-05-02T01:49:17;101764.03;;;10.86;92.69
43745;BME280;29359;53.048;8.732;2023-05-02T01:51:20;101767.63;;;10.81;93.37
43745;BME280;29359;53.048;8.732;2023-05-02T01:53:25;101772.13;;;10.74;94.35
43745;BME280;29359;53.048;8.732;2023-05-02T01:55:28;101777.47;;;10.69;94.51
43745;BME280;29359;53.048;8.732;2023-05-02T01:57:31;101774.00;;;10.64;95.59
43745;BME280;29359;53.048;8.732;2023-05-02T01:59:34;101779.34;;;10.60;96.28
43745;BME280;29359;53.048;8.732;2023-05-02T02:01:38;101789.03;;;10.61;96.57
43745;BME280;29359;53.048;8.732;2023-05-02T02:03:41;101782.00;;;10.60;96.10
43745;BME280;29359;53.048;8.732;2023-05-02T02:05:44;101789.97;;;10.57;96.29
43745;BME280;29359;53.048;8.732;2023-05-02T02:07:48;101793.47;;;10.57;96.75
43745;BME280;29359;53.048;8.732;2023-05-02T02:09:49;101801.41;;;10.56;96.39
43745;BME280;29359;53.048;8.732;2023-05-02T02:11:58;101801.53;;;10.47;96.82
43745;BME280;29359;53.048;8.732;2023-05-02T02:14:05;101810.41;;;10.38;96.24
43745;BME280;29359;53.048;8.732;2023-05-02T02:16:10;101811.38;;;10.32;96.81
43745;BME280;29359;53.048;8.732;2023-05-02T02:18:24;101807.94;;;10.26;96.18
43745;BME280;29359;53.048;8.732;2023-05-02T02:20:28;101818.53;;;10.18;97.17
43745;BME280;29359;53.048;8.732;2023-05-02T02:22:33;101815.03;;;10.16;96.35
43745;BME280;29359;53.048;8.732;2023-05-02T02:24:37;101814.19;;;10.14;96.60
43745;BME280;29359;53.048;8.732;2023-05-02T02:26:40;101814.19;;;10.13;96.81
43745;BME280;29359;53.048;8.732;2023-05-02T02:28:41;101819.53;;;10.08;95.83
43745;BME280;29359;53.048;8.732;2023-05-02T02:30:43;101827.44;;;10.10;95.73
43745;BME280;29359;53.048;8.732;2023-05-02T02:32:45;101825.72;;;10.04;95.96
43745;BME280;29359;53.048;8.732;2023-05-02T02:34:46;101839.81;;;10.01;95.21
43745;BME280;29359;53.048;8.732;2023-05-02T02:36:56;101846.91;;;9.95;94.24
43745;BME280;29359;53.048;8.732;2023-05-02T02:39:13;101852.22;;;9.89;92.35
43745;BME280;29359;53.048;8.732;2023-05-02T02:41:53;101860.25;;;9.78;91.60
43745;BME280;29359;53.048;8.732;2023-05-02T02:44:05;101863.78;;;9.75;90.01
43745;BME280;29359;53.048;8.732;2023-05-02T02:46:59;101869.09;;;9.71;89.00
43745;BME280;29359;53.048;8.732;2023-05-02T02:51:37;101869.19;;;9.59;88.31
43745;BME280;29359;53.048;8.732;2023-05-02T02:54:13;101873.59;;;9.52;89.10
43745;BME280;29359;53.048;8.732;2023-05-02T02:56:46;101885.97;;;9.45;88.63
43745;BME280;29359;53.048;8.732;2023-05-02T02:59:39;101886.84;;;9.43;88.13
43745;BME280;29359;53.048;8.732;2023-05-02T03:01:20;101897.41;;;9.41;87.77
43745;BME280;29359;53.048;8.732;2023-05-02T03:03:23;101893.03;;;9.39;87.92
43745;BME280;29359;53.048;8.732;2023-05-02T03:05:29;101905.34;;;9.37;87.97
43745;BME280;29359;53.048;8.732;2023-05-02T03:07:33;101909.72;;;9.38;87.65
43745;BME280;29359;53.048;8.732;2023-05-02T03:11:42;101909.69;;;9.45;85.13
43745;BME280;29359;53.048;8.732;2023-05-02T03:13:45;101904.38;;;9.52;83.40
43745;BME280;29359;53.048;8.732;2023-05-02T03:17:52;101919.31;;;9.50;83.82
43745;BME280;29359;53.048;8.732;2023-05-02T03:19:54;101923.75;;;9.43;84.56
43745;BME280;29359;53.048;8.732;2023-05-02T03:21:55;101930.78;;;9.44;83.67
43745;BME280;29359;53.048;8.732;2023-05-02T03:24:00;101937.81;;;9.43;83.86
43745;BME280;29359;53.048;8.732;2023-05-02T03:26:02;101938.72;;;9.41;83.98
43745;BME280;29359;53.048;8.732;2023-05-02T03:28:04;101934.31;;;9.43;82.91
43745;BME280;29359;53.048;8.732;2023-05-02T03:30:06;101951.91;;;9.38;84.08
43745;BME280;29359;53.048;8.732;2023-05-02T03:32:08;101950.19;;;9.32;84.21
43745;BME280;29359;53.048;8.732;2023-05-02T03:34:10;101947.56;;;9.26;85.44
43745;BME280;29359;53.048;8.732;2023-05-02T03:36:11;101952.84;;;9.28;83.99
43745;BME280;29359;53.048;8.732;2023-05-02T03:38:13;101952.81;;;9.31;83.44
43745;BME280;29359;53.048;8.732;2023-05-02T03:40:14;101955.47;;;9.31;82.34
43745;BME280;29359;53.048;8.732;2023-05-02T03:42:16;101965.97;;;9.35;81.32
43745;BME280;29359;53.048;8.732;2023-05-02T03:44:18;101977.41;;;9.33;81.27
43745;BME280;29359;53.048;8.732;2023-05-02T03:46:20;101970.41;;;9.30;80.64
43745;BME280;29359;53.048;8.732;2023-05-02T03:48:21;101980.94;;;9.30;80.79
43745;BME280;29359;53.048;8.732;2023-05-02T03:50:23;101987.13;;;9.25;80.69
43745;BME280;29359;53.048;8.732;2023-05-02T03:52:25;101984.53;;;9.12;81.31
43745;BME280;29359;53.048;8.732;2023-05-02T03:54:27;101985.41;;;9.05;81.37
43745;BME280;29359;53.048;8.732;2023-05-02T03:56:28;101987.19;;;9.02;81.84
43745;BME280;29359;53.048;8.732;2023-05-02T03:58:30;101998.59;;;8.98;81.79
43745;BME280;29359;53.048;8.732;2023-05-02T04:00:31;102004.75;;;8.95;81.95
43745;BME280;29359;53.048;8.732;2023-05-02T04:02:33;102005.66;;;8.90;81.43
43745;BME280;29359;53.048;8.732;2023-05-02T04:04:34;102005.63;;;8.94;81.08
43745;BME280;29359;53.048;8.732;2023-05-02T04:06:36;102007.38;;;8.97;80.92
43745;BME280;29359;53.048;8.732;2023-05-02T04:08:38;102013.53;;;8.96;80.44
43745;BME280;29359;53.048;8.732;2023-05-02T04:10:40;102019.69;;;8.92;80.84
43745;BME280;29359;53.048;8.732;2023-05-02T04:12:41;102028.50;;;8.85;81.12
43745;BME280;29359;53.048;8.732;2023-05-02T04:14:43;102033.75;;;8.85;81.17
43745;BME280;29359;53.048;8.732;2023-05-02T04:16:48;102036.41;;;8.81;81.36
43745;BME280;29359;53.048;8.732;2023-05-02T04:18:50;102038.16;;;8.76;81.24
43745;BME280;29359;53.048;8.732;2023-05-02T04:20:52;102038.16;;;8.79;80.87
43745;BME280;29359;53.048;8.732;2023-05-02T04:22:53;102039.94;;;8.73;81.13
43745;BME280;29359;53.048;8.732;2023-05-02T04:24:55;102053.06;;;8.62;80.76
43745;BME280;29359;53.048;8.732;2023-05-02T04:26:57;102045.19;;;8.50;80.80
43745;BME280;29359;53.048;8.732;2023-05-02T04:28:58;102046.94;;;8.53;80.59
43745;BME280;29359;53.048;8.732;2023-05-02T04:31:00;102049.56;;;8.49;79.90
43745;BME280;29359;53.048;8.732;2023-05-02T04:33:02;102055.72;;;8.58;80.49
43745;BME280;29359;53.048;8.732;2023-05-02T04:35:04;102060.09;;;8.57;79.47
43745;BME280;29359;53.048;8.732;2023-05-02T04:37:06;102058.34;;;8.61;79.40
43745;BME280;29359;53.048;8.732;2023-05-02T04:39:08;102053.94;;;8.60;79.29
43745;BME280;29359;53.048;8.732;2023-05-02T04:41:10;102066.22;;;8.64;78.75
43745;BME280;29359;53.048;8.732;2023-05-02T04:43:12;102068.00;;;8.57;79.12
43745;BME280;29359;53.048;8.732;2023-05-02T04:45:13;102068.00;;;8.56;78.48
43745;BME280;29359;53.048;8.732;2023-05-02T04:47:15;102077.66;;;8.50;78.60
43745;BME280;29359;53.048;8.732;2023-05-02T04:49:16;102084.66;;;8.56;78.65
43745;BME280;29359;53.048;8.732;2023-05-02T04:51:18;102081.16;;;8.49;78.15
43745;BME280;29359;53.048;8.732;2023-05-02T04:53:21;102087.31;;;8.48;77.86
43745;BME280;29359;53.048;8.732;2023-05-02T04:55:23;102100.47;;;8.47;78.64
43745;BME280;29359;53.048;8.732;2023-05-02T04:57:24;102094.31;;;8.43;77.62
43745;BME280;29359;53.048;8.732;2023-05-02T04:59:26;102100.47;;;8.47;78.30
43745;BME280;29359;53.048;8.732;2023-05-02T05:01:27;102110.13;;;8.54;78.40
43745;BME280;29359;53.048;8.732;2023-05-02T05:03:29;102108.34;;;8.55;77.66
43745;BME280;29359;53.048;8.732;2023-05-02T05:05:32;102112.75;;;8.51;77.82
43745;BME280;29359;53.048;8.732;2023-05-02T05:07:34;102112.75;;;8.48;78.14
43745;BME280;29359;53.048;8.732;2023-05-02T05:09:35;102131.16;;;8.62;78.01
43745;BME280;29359;53.048;8.732;2023-05-02T05:11:37;102127.69;;;8.70;77.54
43745;BME280;29359;53.048;8.732;2023-05-02T05:13:39;102125.94;;;8.74;77.09
43745;BME280;29359;53.048;8.732;2023-05-02T05:15:41;102132.94;;;8.81;76.48
43745;BME280;29359;53.048;8.732;2023-05-02T05:17:42;102135.59;;;8.75;76.05
43745;BME280;29359;53.048;8.732;2023-05-02T05:19:44;102145.25;;;8.70;76.92
43745;BME280;29359;53.048;8.732;2023-05-02T05:21:46;102148.75;;;8.69;76.82
43745;BME280;29359;53.048;8.732;2023-05-02T05:23:47;102147.00;;;8.68;76.62
43745;BME280;29359;53.048;8.732;2023-05-02T05:25:49;102158.38;;;8.65;76.16
43745;BME280;29359;53.048;8.732;2023-05-02T05:27:50;102157.50;;;8.56;76.12
43745;BME280;29359;53.048;8.732;2023-05-02T05:29:53;102153.09;;;8.47;76.54
43745;BME280;29359;53.048;8.732;2023-05-02T05:31:54;102160.97;;;8.42;76.18
43745;BME280;29359;53.048;8.732;2023-05-02T05:33:56;102160.97;;;8.41;76.36
43745;BME280;29359;53.048;8.732;2023-05-02T05:36:08;102175.88;;;8.37;76.77
43745;BME280;29359;53.048;8.732;2023-05-02T05:38:10;102174.16;;;8.45;76.99
43745;BME280;29359;53.048;8.732;2023-05-02T05:40:11;102177.66;;;8.44;76.70
43745;BME280;29359;53.048;8.732;2023-05-02T05:42:13;102175.91;;;8.53;77.07
43745;BME280;29359;53.048;8.732;2023-05-02T05:44:14;102182.94;;;8.60;77.02
43745;BME280;29359;53.048;8.732;2023-05-02T05:46:16;102193.47;;;8.57;76.54
43745;BME280;29359;53.048;8.732;2023-05-02T05:48:17;102193.47;;;8.49;76.62
43745;BME280;29359;53.048;8.732;2023-05-02T05:50:19;102203.09;;;8.52;77.06
43745;BME280;29359;53.048;8.732;2023-05-02T05:52:21;102205.72;;;8.48;76.87
43745;BME280;29359;53.048;8.732;2023-05-02T05:54:23;102207.50;;;8.48;77.18
43745;BME280;29359;53.048;8.732;2023-05-02T05:56:24;102207.50;;;8.59;76.76
43745;BME280;29359;53.048;8.732;2023-05-02T05:58:26;102215.41;;;8.65;76.21
43745;BME280;29359;53.048;8.732;2023-05-02T06:00:27;102216.28;;;8.67;76.37
43745;BME280;29359;53.048;8.732;2023-05-02T06:02:29;102226.81;;;8.65;75.35
43745;BME280;29359;53.048;8.732;2023-05-02T06:04:30;102232.06;;;8.59;75.84
43745;BME280;29359;53.048;8.732;2023-05-02T06:06:32;102234.72;;;8.61;75.64
43745;BME280;29359;53.048;8.732;2023-05-02T06:08:34;102240.88;;;8.64;75.79
43745;BME280;29359;53.048;8.732;2023-05-02T06:10:36;102237.34;;;8.59;74.84
43745;BME280;29359;53.048;8.732;2023-05-02T06:12:37;102246.97;;;8.43;73.58
43745;BME280;29359;53.048;8.732;2023-05-02T06:14:39;102246.94;;;8.34;73.74
43745;BME280;29359;53.048;8.732;2023-05-02T06:16:40;102244.19;;;8.22;72.88
43745;BME280;29359;53.048;8.732;2023-05-02T06:18:43;102252.94;;;8.19;73.36
43745;BME280;29359;53.048;8.732;2023-05-02T06:20:45;102256.47;;;8.20;73.68
43745;BME280;29359;53.048;8.732;2023-05-02T06:22:46;102270.50;;;8.19;73.28
43745;BME280;29359;53.048;8.732;2023-05-02T06:24:48;102261.69;;;8.12;72.73
43745;BME280;29359;53.048;8.732;2023-05-02T06:26:49;102272.19;;;8.06;72.24
43745;BME280;29359;53.048;8.732;2023-05-02T06:28:53;102275.72;;;8.13;74.03
43745;BME280;29359;53.048;8.732;2023-05-02T06:30:59;102269.59;;;8.17;74.56
43745;BME280;29359;53.048;8.732;2023-05-02T06:33:05;102289.78;;;8.21;74.71
43745;BME280;29359;53.048;8.732;2023-05-02T06:35:07;102281.00;;;8.20;73.76
43745;BME280;29359;53.048;8.732;2023-05-02T06:37:08;102291.53;;;8.17;72.05
43745;BME280;29359;53.048;8.732;2023-05-02T06:39:10;102290.63;;;8.11;70.51
43745;BME280;29359;53.048;8.732;2023-05-02T06:41:12;102292.31;;;8.00;68.80
43745;BME280;29359;53.048;8.732;2023-05-02T06:43:18;102299.28;;;7.92;68.48
43745;BME280;29359;53.048;8.732;2023-05-02T06:45:20;102311.56;;;7.91;68.53
43745;BME280;29359;53.048;8.732;2023-05-02T06:47:21;102319.44;;;7.90;68.86
43745;BME280;29359;53.048;8.732;2023-05-02T06:49:25;102320.31;;;7.92;69.53
43745;BME280;29359;53.048;8.732;2023-05-02T06:51:26;102313.34;;;7.97;71.29
43745;BME280;29359;53.048;8.732;2023-05-02T06:53:29;102318.63;;;8.00;71.09
43745;BME280;29359;53.048;8.732;2023-05-02T06:55:33;102311.59;;;7.97;69.15
43745;BME280;29359;53.048;8.732;2023-05-02T06:57:34;102313.34;;;8.00;69.13
43745;BME280;29359;53.048;8.732;2023-05-02T06:59:36;102323.03;;;8.05;69.22
43745;BME280;29359;53.048;8.732;2023-05-02T07:01:38;102325.72;;;8.16;69.50
43745;BME280;29359;53.048;8.732;2023-05-02T07:03:39;102330.13;;;8.23;70.27
43745;BME280;29359;53.048;8.732;2023-05-02T07:05:41;102334.53;;;8.23;68.45
43745;BME280;29359;53.048;8.732;2023-05-02T07:07:43;102335.41;;;8.23;68.71
43745;BME280;29359;53.048;8.732;2023-05-02T07:09:45;102333.66;;;8.24;69.11
43745;BME280;29359;53.048;8.732;2023-05-02T07:11:46;102335.44;;;8.25;68.45
43745;BME280;29359;53.048;8.732;2023-05-02T07:13:48;102344.13;;;8.16;65.98
43745;BME280;29359;53.048;8.732;2023-05-02T07:15:49;102352.00;;;8.10;66.24
43745;BME280;29359;53.048;8.732;2023-05-02T07:17:51;102354.59;;;8.05;66.14
43745;BME280;29359;53.048;8.732;2023-05-02T07:19:53;102353.72;;;8.05;67.02
43745;BME280;29359;53.048;8.732;2023-05-02T07:21:54;102355.50;;;8.13;69.63
43745;BME280;29359;53.048;8.732;2023-05-02T07:23:56;102363.41;;;8.13;66.38
43745;BME280;29359;53.048;8.732;2023-05-02T07:25:57;102366.03;;;8.15;66.27
43745;BME280;29359;53.048;8.732;2023-05-02T07:27:59;102369.53;;;8.12;65.23
43745;BME280;29359;53.048;8.732;2023-05-02T07:30:01;102365.19;;;8.19;67.07
43745;BME280;29359;53.048;8.732;2023-05-02T07:32:03;102376.59;;;8.19;66.22
43745;BME280;29359;53.048;8.732;2023-05-02T07:34:05;102380.97;;;8.17;65.51
43745;BME280;29359;53.048;8.732;2023-05-02T07:36:06;102377.47;;;8.20;65.90
43745;BME280;29359;53.048;8.732;2023-05-02T07:38:08;102386.25;;;8.20;64.25
43745;BME280;29359;53.048;8.732;2023-05-02T07:40:09;102388.94;;;8.25;66.37
43745;BME280;29359;53.048;8.732;2023-05-02T07:42:11;102385.47;;;8.32;66.64
43745;BME280;29359;53.048;8.732;2023-05-02T07:44:12;102388.16;;;8.38;66.56
43745;BME280;29359;53.048;8.732;2023-05-02T07:46:14;102400.44;;;8.36;63.88
43745;BME280;29359;53.048;8.732;2023-05-02T07:48:16;102393.41;;;8.34;62.49
43745;BME280;29359;53.048;8.732;2023-05-02T07:50:17;102405.63;;;8.27;62.04
43745;BME280;29359;53.048;8.732;2023-05-02T07:52:19;102404.72;;;8.25;63.75
43745;BME280;29359;53.048;8.732;2023-05-02T07:54:21;102398.63;;;8.32;64.47
43745;BME280;29359;53.048;8.732;2023-05-02T07:56:24;102411.00;;;8.41;65.06
43745;BME280;29359;53.048;8.732;2023-05-02T07:58:26;102409.25;;;8.41;62.65
43745;BME280;29359;53.048;8.732;2023-05-02T08:00:28;102399.59;;;8.43;63.08
43745;BME280;29359;53.048;8.732;2023-05-02T08:02:30;102401.38;;;8.50;64.71
43745;BME280;29359;53.048;8.732;2023-05-02T08:04:32;102406.72;;;8.63;65.41
43745;BME280;29359;53.048;8.732;2023-05-02T08:06:34;102405.91;;;8.71;64.65
43745;BME280;29359;53.048;8.732;2023-05-02T08:08:37;102410.31;;;8.77;61.76
43745;BME280;29359;53.048;8.732;2023-05-02T08:10:38;102412.03;;;8.70;60.80
43745;BME280;29359;53.048;8.732;2023-05-02T08:12:40;102409.41;;;8.69;59.73
43745;BME280;29359;53.048;8.732;2023-05-02T08:14:42;102417.25;;;8.64;60.26
43745;BME280;29359;53.048;8.732;2023-05-02T08:16:44;102424.34;;;8.71;61.94
43745;BME280;29359;53.048;8.732;2023-05-02T08:18:47;102426.13;;;8.77;61.86
43745;BME280;29359;53.048;8.732;2023-05-02T08:20:48;102426.16;;;8.85;60.92
43745;BME280;29359;53.048;8.732;2023-05-02T08:22:50;102427.00;;;8.82;60.33
43745;BME280;29359;53.048;8.732;2023-05-02T08:24:52;102424.38;;;8.77;60.93
43745;BME280;29359;53.048;8.732;2023-05-02T08:26:53;102431.38;;;8.75;59.57
43745;BME280;29359;53.048;8.732;2023-05-02T08:28:55;102433.13;;;8.73;62.51
43745;BME280;29359;53.048;8.732;2023-05-02T08:30:57;102429.63;;;8.74;61.72
43745;BME280;29359;53.048;8.732;2023-05-02T08:32:58;102435.78;;;8.82;63.80
43745;BME280;29359;53.048;8.732;2023-05-02T08:35:00;102445.47;;;8.90;62.56
43745;BME280;29359;53.048;8.732;2023-05-02T08:37:07;102453.38;;;8.88;60.85
43745;BME280;29359;53.048;8.732;2023-05-02T08:39:09;102451.63;;;8.87;62.47
43745;BME280;29359;53.048;8.732;2023-05-02T08:41:13;102450.72;;;8.85;61.95
43745;BME280;29359;53.048;8.732;2023-05-02T08:43:15;102451.63;;;8.90;61.81
43745;BME280;29359;53.048;8.732;2023-05-02T08:45:18;102457.78;;;8.89;60.73
43745;BME280;29359;53.048;8.732;2023-05-02T08:47:21;102450.78;;;9.00;63.52
43745;BME280;29359;53.048;8.732;2023-05-02T08:49:24;102460.56;;;9.23;64.83
43745;BME280;29359;53.048;8.732;2023-05-02T08:51:28;102455.34;;;9.49;64.98
43745;BME280;29359;53.048;8.732;2023-05-02T08:53:33;102451.00;;;9.67;65.39
43745;BME280;29359;53.048;8.732;2023-05-02T08:55:37;102459.81;;;9.79;64.45
43745;BME280;29359;53.048;8.732;2023-05-02T08:57:42;102453.66;;;9.83;62.48
43745;BME280;29359;53.048;8.732;2023-05-02T08:59:44;102465.09;;;9.85;62.62
43745;BME280;29359;53.048;8.732;2023-05-02T09:01:48;102465.97;;;9.79;62.41
43745;BME280;29359;53.048;8.732;2023-05-02T09:03:53;102465.06;;;9.69;60.67
43745;BME280;29359;53.048;8.732;2023-05-02T09:06:09;102472.03;;;9.48;60.11
43745;BME280;29359;53.048;8.732;2023-05-02T09:08:11;102472.91;;;9.40;65.03
43745;BME280;29359;53.048;8.732;2023-05-02T09:10:13;102480.81;;;9.42;66.81
43745;BME280;29359;53.048;8.732;2023-05-02T09:12:15;102481.69;;;9.39;64.87
43745;BME280;29359;53.048;8.732;2023-05-02T09:14:17;102483.41;;;9.31;63.07
43745;BME280;29359;53.048;8.732;2023-05-02T09:16:23;102489.50;;;9.13;62.68
43745;BME280;29359;53.048;8.732;2023-05-02T09:18:28;102485.03;;;9.02;64.29
43745;BME280;29359;53.048;8.732;2023-05-02T09:20:38;102498.19;;;8.97;64.02
43745;BME280;29359;53.048;8.732;2023-05-02T09:22:50;102493.81;;;9.01;63.15
43745;BME280;29359;53.048;8.732;2023-05-02T09:24:56;102492.94;;;8.99;62.12
43745;BME280;29359;53.048;8.732;2023-05-02T09:27:02;102489.44;;;9.04;61.85
43745;BME280;29359;53.048;8.732;2023-05-02T09:29:04;102489.50;;;9.10;59.93
43745;BME280;29359;53.048;8.732;2023-05-02T09:31:08;102486.03;;;9.24;61.18
43745;BME280;29359;53.048;8.732;2023-05-02T09:33:10;102486.06;;;9.36;61.12
43745;BME280;29359;53.048;8.732;2023-05-02T09:35:13;102489.66;;;9.56;60.80
43745;BME280;29359;53.048;8.732;2023-05-02T09:37:33;102494.09;;;9.82;59.11
43745;BME280;29359;53.048;8.732;2023-05-02T09:39:35;102492.34;;;9.91;60.28
43745;BME280;29359;53.048;8.732;2023-05-02T09:43:43;102487.09;;;10.05;62.95
43745;BME280;29359;53.048;8.732;2023-05-02T09:46:01;102496.81;;;10.21;60.90
43745;BME280;29359;53.048;8.732;2023-05-02T09:48:03;102488.91;;;10.41;59.64
43745;BME280;29359;53.048;8.732;2023-05-02T09:50:05;102490.63;;;10.59;57.02
43745;BME280;29359;53.048;8.732;2023-05-02T09:52:13;102498.53;;;10.73;57.99
43745;BME280;29359;53.048;8.732;2023-05-02T09:54:34;102501.13;;;10.92;61.36
43745;BME280;29359;53.048;8.732;2023-05-02T09:56:55;102505.41;;;11.21;59.53
43745;BME280;29359;53.048;8.732;2023-05-02T09:59:13;102504.50;;;11.34;54.88
43745;BME280;29359;53.048;8.732;2023-05-02T10:01:18;102509.81;;;11.22;58.19
43745;BME280;29359;53.048;8.732;2023-05-02T10:03:22;102501.94;;;11.08;57.47
43745;BME280;29359;53.048;8.732;2023-05-02T10:05:24;102514.31;;;11.03;60.52
43745;BME280;29359;53.048;8.732;2023-05-02T10:07:27;102521.41;;;10.78;55.28
43745;BME280;29359;53.048;8.732;2023-05-02T10:09:29;102522.31;;;10.56;56.62
43745;BME280;29359;53.048;8.732;2023-05-02T10:11:37;102521.44;;;10.35;55.29
43745;BME280;29359;53.048;8.732;2023-05-02T10:13:40;102530.25;;;10.24;57.78
43745;BME280;29359;53.048;8.732;2023-05-02T10:15:43;102533.75;;;10.21;57.85
43745;BME280;29359;53.048;8.732;2023-05-02T10:17:47;102528.47;;;10.23;57.72
43745;BME280;29359;53.048;8.732;2023-05-02T10:19:53;102532.00;;;10.29;57.24
43745;BME280;29359;53.048;8.732;2023-05-02T10:21:58;102536.41;;;10.33;59.19
43745;BME280;29359;53.048;8.732;2023-05-02T10:24:00;102531.13;;;10.39;59.51
43745;BME280;29359;53.048;8.732;2023-05-02T10:26:03;102538.19;;;10.41;58.24
43745;BME280;29359;53.048;8.732;2023-05-02T10:28:05;102535.53;;;10.48;56.46
43745;BME280;29359;53.048;8.732;2023-05-02T10:30:08;102534.66;;;10.45;57.06
43745;BME280;29359;53.048;8.732;2023-05-02T10:32:12;102537.28;;;10.60;57.43
43745;BME280;29359;53.048;8.732;2023-05-02T10:34:15;102537.22;;;10.83;62.87
43745;BME280;29359;53.048;8.732;2023-05-02T10:36:22;102536.38;;;10.87;57.04
43745;BME280;29359;53.048;8.732;2023-05-02T10:38:24;102542.50;;;10.99;64.39
43745;BME280;29359;53.048;8.732;2023-05-02T10:40:26;102540.75;;;11.00;59.58
43745;BME280;29359;53.048;8.732;2023-05-02T10:42:28;102544.31;;;10.88;56.65
43745;BME280;29359;53.048;8.732;2023-05-02T10:44:38;102543.41;;;10.80;61.08
43745;BME280;29359;53.048;8.732;2023-05-02T10:46:40;102557.50;;;10.76;61.38
43745;BME280;29359;53.048;8.732;2023-05-02T10:48:59;102557.53;;;10.67;62.06
43745;BME280;29359;53.048;8.732;2023-05-02T10:51:01;102557.53;;;10.59;61.46
43745;BME280;29359;53.048;8.732;2023-05-02T10:53:24;102556.63;;;10.79;64.85
43745;BME280;29359;53.048;8.732;2023-05-02T10:55:26;102559.25;;;11.00;66.77
43745;BME280;29359;53.048;8.732;2023-05-02T10:57:27;102562.69;;;11.22;66.27
43745;BME280;29359;53.048;8.732;2023-05-02T11:01:37;102564.50;;;11.08;59.77
43745;BME280;29359;53.048;8.732;2023-05-02T11:03:53;102568.03;;;11.05;60.59
43745;BME280;29359;53.048;8.732;2023-05-02T11:06:05;102574.22;;;10.99;60.83
43745;BME280;29359;53.048;8.732;2023-05-02T11:10:24;102567.19;;;10.92;62.39
43745;BME280;29359;53.048;8.732;2023-05-02T11:14:46;102586.56;;;10.79;59.51
43745;BME280;29359;53.048;8.732;2023-05-02T11:19:05;102590.97;;;10.66;60.82